Time;durP1;ratioP1;P1;durP2;ratioP2;P2;SDS_P1;SDS_P2;PMS_P1;PMS_P2;Temp;Humidity;BMP_temperature;BMP_pressure;BME280_temperature;BME280_humidity;BME280_pressure;Samples;Min_cycle;Max_cycle;Signal;HPM_P1;HPM_P2
2022/12/02 00:02:32;;;;;;;70.82;36.15;;;;;;;;;;10191304;28;20053;-69
2022/12/02 00:07:30;;;;;;;67.00;34.80;;;;;;;;;;10192947;28;20084;-71
2022/12/02 00:12:27;;;;;;;84.25;37.40;;;;;;;;;;10183079;28;20042;-72
2022/12/02 00:17:37;;;;;;;84.70;38.35;;;;;;;;;;10196257;28;20044;-71
2022/12/02 00:22:34;;;;;;;80.43;38.88;;;;;;;;;;10193855;28;20042;-71
2022/12/02 00:27:30;;;;;;;91.22;39.15;;;;;;;;;;10199945;28;20462;-69
2022/12/02 00:32:26;;;;;;;85.82;39.47;;;;;;;;;;10194309;28;20045;-69
2022/12/02 00:37:22;;;;;;;76.25;39.55;;;;;;;;;;10192739;28;20046;-70
2022/12/02 00:42:19;;;;;;;81.20;40.95;;;;;;;;;;10194621;28;20682;-70
2022/12/02 00:47:15;;;;;;;69.35;37.55;;;;;;;;;;10189599;28;20117;-71
2022/12/02 00:52:11;;;;;;;68.10;37.95;;;;;;;;;;10190525;28;20043;-70
2022/12/02 00:57:08;;;;;;;76.63;37.45;;;;;;;;;;10196891;28;20046;-70
2022/12/02 01:02:04;;;;;;;73.72;37.00;;;;;;;;;;10194133;28;20135;-71
2022/12/02 01:07:00;;;;;;;60.72;35.67;;;;;;;;;;10199259;28;20041;-71
2022/12/02 01:11:56;;;;;;;68.63;36.85;;;;;;;;;;10190175;28;20069;-72
2022/12/02 01:16:53;;;;;;;69.03;37.58;;;;;;;;;;10191605;28;20052;-71
2022/12/02 01:21:49;;;;;;;69.30;35.33;;;;;;;;;;10193918;28;20421;-70
2022/12/02 01:26:45;;;;;;;64.88;35.97;;;;;;;;;;10189982;28;20049;-69
2022/12/02 01:31:42;;;;;;;65.55;36.15;;;;;;;;;;10185994;28;20064;-70
2022/12/02 01:36:38;;;;;;;71.75;37.13;;;;;;;;;;10184938;28;20050;-69
2022/12/02 01:41:34;;;;;;;65.43;36.65;;;;;;;;;;10187111;28;20057;-70
2022/12/02 01:46:31;;;;;;;81.72;38.15;;;;;;;;;;10196059;28;20128;-73
2022/12/02 01:51:27;;;;;;;72.88;39.80;;;;;;;;;;10185055;28;20137;-73
2022/12/02 01:56:24;;;;;;;72.95;38.92;;;;;;;;;;10183306;28;20046;-73
2022/12/02 02:01:40;;;;;;;77.50;41.45;;;;;;;;;;10192483;28;20125;-73
2022/12/02 02:06:38;;;;;;;75.53;40.78;;;;;;;;;;10187656;28;20041;-74
2022/12/02 02:11:35;;;;;;;75.47;42.13;;;;;;;;;;10188055;28;20052;-74
2022/12/02 02:16:32;;;;;;;73.90;41.38;;;;;;;;;;10194082;28;20052;-70
2022/12/02 02:21:31;;;;;;;81.85;42.80;;;;;;;;;;10198051;28;20038;-71
2022/12/02 02:26:28;;;;;;;75.35;41.63;;;;;;;;;;10178839;28;20070;-71
2022/12/02 02:31:24;;;;;;;81.82;43.70;;;;;;;;;;10181818;28;20045;-71
2022/12/02 02:36:20;;;;;;;76.60;46.42;;;;;;;;;;10193552;28;20049;-72
2022/12/02 02:41:17;;;;;;;71.32;43.03;;;;;;;;;;10191724;28;20061;-71
2022/12/02 02:46:14;;;;;;;71.25;44.10;;;;;;;;;;10190417;28;20161;-70
2022/12/02 02:51:11;;;;;;;73.82;46.83;;;;;;;;;;10176145;28;20042;-71
2022/12/02 02:56:07;;;;;;;72.20;46.15;;;;;;;;;;10178195;28;20049;-70
2022/12/02 03:01:10;;;;;;;69.97;46.63;;;;;;;;;;10186886;28;20064;-72
2022/12/02 03:06:07;;;;;;;72.63;45.58;;;;;;;;;;10189830;28;20480;-71
2022/12/02 03:11:05;;;;;;;75.63;47.60;;;;;;;;;;10187441;28;20048;-71
2022/12/02 03:16:02;;;;;;;70.18;46.15;;;;;;;;;;10186970;28;20410;-70
2022/12/02 03:20:58;;;;;;;67.78;44.47;;;;;;;;;;10188123;28;20064;-73
2022/12/02 03:25:55;;;;;;;67.22;46.00;;;;;;;;;;10187304;28;20053;-70
2022/12/02 03:30:51;;;;;;;69.45;45.80;;;;;;;;;;10184104;28;20122;-67
2022/12/02 03:35:48;;;;;;;66.25;46.70;;;;;;;;;;10185925;28;20056;-68
2022/12/02 03:40:44;;;;;;;73.13;48.28;;;;;;;;;;10185021;28;20114;-70
2022/12/02 03:45:41;;;;;;;69.45;49.40;;;;;;;;;;10194867;28;20049;-70
2022/12/02 03:50:38;;;;;;;71.80;50.95;;;;;;;;;;10180832;28;20501;-70
2022/12/02 03:55:35;;;;;;;68.90;52.22;;;;;;;;;;10178092;28;20128;-71
2022/12/02 04:00:31;;;;;;;74.07;53.78;;;;;;;;;;10180085;28;20045;-72
2022/12/02 04:05:27;;;;;;;75.93;53.72;;;;;;;;;;10186913;28;20050;-72
2022/12/02 04:10:24;;;;;;;69.97;51.88;;;;;;;;;;10188016;28;20061;-72
2022/12/02 04:15:20;;;;;;;70.53;57.17;;;;;;;;;;10190083;28;20046;-71
2022/12/02 04:20:16;;;;;;;82.32;57.75;;;;;;;;;;10190488;28;20514;-71
2022/12/02 04:25:12;;;;;;;78.38;59.22;;;;;;;;;;10188851;28;20050;-71
2022/12/02 04:30:09;;;;;;;72.78;57.75;;;;;;;;;;10190334;28;20410;-71
2022/12/02 04:35:05;;;;;;;79.53;57.92;;;;;;;;;;10194398;28;20056;-69
2022/12/02 04:40:02;;;;;;;74.10;58.92;;;;;;;;;;10214609;28;20056;-69
2022/12/02 04:44:58;;;;;;;78.60;62.67;;;;;;;;;;10198338;28;20125;-69
2022/12/02 04:49:54;;;;;;;77.97;61.00;;;;;;;;;;10202449;28;20042;-69
2022/12/02 04:54:50;;;;;;;74.32;60.20;;;;;;;;;;10184971;28;20076;-69
2022/12/02 04:59:47;;;;;;;77.13;61.67;;;;;;;;;;10195092;28;20042;-71
2022/12/02 05:04:43;;;;;;;79.32;60.55;;;;;;;;;;10181321;28;20536;-71
2022/12/02 05:09:39;;;;;;;76.72;62.53;;;;;;;;;;10178703;28;20051;-71
2022/12/02 05:14:36;;;;;;;74.88;63.13;;;;;;;;;;10188301;28;20395;-75
2022/12/02 05:19:32;;;;;;;80.63;65.55;;;;;;;;;;10193572;28;20056;-75
2022/12/02 05:24:29;;;;;;;76.82;67.40;;;;;;;;;;10194725;28;20034;-75
2022/12/02 05:29:25;;;;;;;79.88;70.30;;;;;;;;;;10177345;28;20081;-75
2022/12/02 05:34:22;;;;;;;76.10;64.68;;;;;;;;;;10176955;28;20133;-73
2022/12/02 05:39:18;;;;;;;79.90;67.85;;;;;;;;;;10173843;28;20646;-74
2022/12/02 05:44:22;;;;;;;75.78;67.13;;;;;;;;;;10193653;28;20520;-73
2022/12/02 05:49:20;;;;;;;74.88;65.60;;;;;;;;;;10183512;28;20059;-74
2022/12/02 05:54:18;;;;;;;83.97;70.40;;;;;;;;;;10185890;28;20148;-73
2022/12/02 05:59:16;;;;;;;75.05;66.95;;;;;;;;;;10183374;28;20050;-74
2022/12/02 06:04:13;;;;;;;77.30;69.18;;;;;;;;;;10174920;28;20129;-74
2022/12/02 06:09:17;;;;;;;81.63;70.47;;;;;;;;;;10167971;28;20049;-73
2022/12/02 06:14:21;;;;;;;74.60;65.40;;;;;;;;;;10171280;28;20128;-73
2022/12/02 06:19:22;;;;;;;74.55;66.88;;;;;;;;;;10197685;28;20084;-73
2022/12/02 06:24:26;;;;;;;73.68;63.38;;;;;;;;;;10170949;28;20037;-75
2022/12/02 06:29:24;;;;;;;70.15;62.67;;;;;;;;;;10184751;28;20612;-73
2022/12/02 06:34:30;;;;;;;71.72;64.07;;;;;;;;;;10180083;28;20042;-73
2022/12/02 06:39:26;;;;;;;67.40;60.28;;;;;;;;;;10187073;28;20493;-73
2022/12/02 06:49:38;;;;;;;73.20;65.20;;;;;;;;;;10171961;28;20129;-70
2022/12/02 06:54:36;;;;;;;69.30;60.78;;;;;;;;;;10184287;28;20038;-69
2022/12/02 06:59:32;;;;;;;71.47;63.90;;;;;;;;;;10187201;28;20038;-70
2022/12/02 07:04:50;;;;;;;74.90;66.82;;;;;;;;;;10183319;28;20042;-70
2022/12/02 07:09:50;;;;;;;77.13;68.88;;;;;;;;;;10175427;28;20046;-69
2022/12/02 07:14:48;;;;;;;74.80;66.75;;;;;;;;;;10186174;28;20141;-71
2022/12/02 07:19:46;;;;;;;73.47;65.45;;;;;;;;;;10171833;28;20493;-69
2022/12/02 07:24:47;;;;;;;75.72;67.57;;;;;;;;;;10182771;28;20569;-70
2022/12/02 07:29:44;;;;;;;78.60;66.53;;;;;;;;;;10183981;28;20069;-69
2022/12/02 07:34:40;;;;;;;72.15;64.20;;;;;;;;;;10180676;28;20058;-70
2022/12/02 07:39:37;;;;;;;75.57;64.07;;;;;;;;;;10184464;28;20046;-69
2022/12/02 07:44:33;;;;;;;80.32;70.20;;;;;;;;;;10176436;28;20046;-70
2022/12/02 07:49:29;;;;;;;75.85;67.75;;;;;;;;;;10190217;28;20061;-70
2022/12/02 07:54:27;;;;;;;78.57;70.32;;;;;;;;;;10191132;28;20048;-70
2022/12/02 07:59:23;;;;;;;76.60;68.50;;;;;;;;;;10183348;28;20042;-69
2022/12/02 08:04:19;;;;;;;76.00;67.78;;;;;;;;;;10184454;28;20034;-71
2022/12/02 08:09:15;;;;;;;75.97;67.70;;;;;;;;;;10177148;28;20041;-70
2022/12/02 08:14:12;;;;;;;79.38;70.90;;;;;;;;;;10182302;28;20072;-70
2022/12/02 08:19:08;;;;;;;79.30;70.63;;;;;;;;;;10187613;28;20516;-70
2022/12/02 08:24:05;;;;;;;79.40;70.90;;;;;;;;;;10206258;28;20037;-70
2022/12/02 08:29:01;;;;;;;80.65;71.85;;;;;;;;;;10205779;28;20041;-70
2022/12/02 08:33:57;;;;;;;78.60;69.95;;;;;;;;;;10197103;28;20053;-70
2022/12/02 08:39:04;;;;;;;81.97;73.05;;;;;;;;;;10206466;28;20041;-70
2022/12/02 08:44:00;;;;;;;84.70;75.82;;;;;;;;;;10202060;28;20056;-70
2022/12/02 08:48:57;;;;;;;78.35;70.25;;;;;;;;;;10196144;28;20428;-70
2022/12/02 08:53:54;;;;;;;78.40;70.03;;;;;;;;;;10201573;28;20072;-70
2022/12/02 08:58:50;;;;;;;81.32;72.88;;;;;;;;;;10204659;28;20416;-70
2022/12/02 09:03:46;;;;;;;86.30;77.13;;;;;;;;;;10201334;28;20141;-70
2022/12/02 09:08:43;;;;;;;79.85;71.22;;;;;;;;;;10190730;28;20113;-70
2022/12/02 09:13:39;;;;;;;84.90;75.75;;;;;;;;;;10189037;28;20046;-69
2022/12/02 09:18:35;;;;;;;77.63;67.18;;;;;;;;;;10184461;28;20038;-68
2022/12/02 09:23:31;;;;;;;80.78;71.30;;;;;;;;;;10183390;28;20050;-70
2022/12/02 09:28:28;;;;;;;81.50;72.80;;;;;;;;;;10175930;28;21639;-69
2022/12/02 09:33:24;;;;;;;74.53;66.65;;;;;;;;;;10180248;28;20569;-69
2022/12/02 09:38:30;;;;;;;77.50;68.00;;;;;;;;;;10179361;28;20593;-69
2022/12/02 09:43:28;;;;;;;80.35;64.45;;;;;;;;;;10203601;28;20042;-69
2022/12/02 09:48:25;;;;;;;80.72;63.15;;;;;;;;;;10205665;28;20497;-69
2022/12/02 09:53:24;;;;;;;76.18;62.45;;;;;;;;;;10194633;28;20050;-69
2022/12/02 09:58:21;;;;;;;74.97;61.45;;;;;;;;;;10195054;28;20133;-69
2022/12/02 10:03:20;;;;;;;71.65;59.83;;;;;;;;;;10206427;28;20045;-69
2022/12/02 10:08:17;;;;;;;72.65;59.03;;;;;;;;;;10197657;28;20045;-68
2022/12/02 10:13:18;;;;;;;78.78;61.13;;;;;;;;;;10201013;28;20060;-69
2022/12/02 10:18:23;;;;;;;72.78;57.95;;;;;;;;;;10203011;28;20573;-69
2022/12/02 10:23:20;;;;;;;71.78;55.55;;;;;;;;;;10174972;28;20045;-69
2022/12/02 10:28:20;;;;;;;74.28;57.50;;;;;;;;;;10193588;28;20425;-69
2022/12/02 10:33:16;;;;;;;70.07;54.47;;;;;;;;;;10191024;28;20120;-69
2022/12/02 10:38:28;;;;;;;67.60;50.97;;;;;;;;;;10187057;28;20408;-69
2022/12/02 10:43:24;;;;;;;71.55;54.17;;;;;;;;;;10192073;28;20409;-69
2022/12/02 10:48:21;;;;;;;70.70;56.25;;;;;;;;;;10170945;28;20137;-69
2022/12/02 10:53:18;;;;;;;66.47;51.85;;;;;;;;;;10180411;28;20049;-69
2022/12/02 10:58:18;;;;;;;72.18;55.40;;;;;;;;;;10176039;28;20045;-69
2022/12/02 11:03:15;;;;;;;70.75;51.85;;;;;;;;;;10173142;28;20613;-68
2022/12/02 11:08:22;;;;;;;70.43;52.65;;;;;;;;;;10178983;28;20136;-68
2022/12/02 11:13:41;;;;;;;70.90;52.30;;;;;;;;;;10195849;28;20052;-69
2022/12/02 11:18:50;;;;;;;70.90;51.28;;;;;;;;;;10175654;28;20082;-68
2022/12/02 11:24:06;;;;;;;65.65;51.35;;;;;;;;;;10200140;28;21270;-69
2022/12/02 11:29:12;;;;;;;61.22;50.13;;;;;;;;;;10196458;28;20041;-68
2022/12/02 11:34:22;;;;;;;69.60;51.05;;;;;;;;;;10193471;28;20045;-68
2022/12/02 11:39:39;;;;;;;71.22;51.95;;;;;;;;;;10193941;28;20061;-68
2022/12/02 11:44:35;;;;;;;68.80;50.40;;;;;;;;;;10192268;28;20057;-68
2022/12/02 11:49:35;;;;;;;70.85;52.15;;;;;;;;;;10186874;28;20502;-69
2022/12/02 11:54:34;;;;;;;69.78;50.47;;;;;;;;;;10191079;28;20050;-68
2022/12/02 11:59:33;;;;;;;67.85;50.97;;;;;;;;;;10190865;28;20049;-69
2022/12/02 12:04:29;;;;;;;64.50;48.58;;;;;;;;;;10201720;28;20041;-68
2022/12/02 12:09:26;;;;;;;65.03;51.80;;;;;;;;;;10188739;28;20046;-68
2022/12/02 12:14:23;;;;;;;66.65;49.72;;;;;;;;;;10191264;28;20418;-69
2022/12/02 12:19:19;;;;;;;62.40;46.95;;;;;;;;;;10196680;28;20045;-68
2022/12/02 12:24:20;;;;;;;62.67;48.05;;;;;;;;;;10195169;28;20707;-69
2022/12/02 12:29:17;;;;;;;62.38;47.55;;;;;;;;;;10192715;28;20472;-69
2022/12/02 12:34:15;;;;;;;60.40;49.53;;;;;;;;;;10185965;28;20120;-69
2022/12/02 12:39:12;;;;;;;63.03;50.53;;;;;;;;;;10200145;28;20083;-70
2022/12/02 12:44:10;;;;;;;60.33;48.88;;;;;;;;;;10200295;28;20128;-68
2022/12/02 12:49:06;;;;;;;56.22;45.13;;;;;;;;;;10204759;28;20052;-69
2022/12/02 12:54:03;;;;;;;58.40;45.72;;;;;;;;;;10198201;28;20084;-68
2022/12/02 12:58:59;;;;;;;56.50;44.78;;;;;;;;;;10203339;28;20128;-69
2022/12/02 13:03:55;;;;;;;56.67;41.55;;;;;;;;;;10198840;28;20065;-69
2022/12/02 13:08:51;;;;;;;60.38;43.58;;;;;;;;;;10197776;28;20149;-69
2022/12/02 13:13:48;;;;;;;51.55;42.17;;;;;;;;;;10202228;28;20056;-68
2022/12/02 13:18:44;;;;;;;49.30;40.33;;;;;;;;;;10198647;28;20063;-69
2022/12/02 13:23:40;;;;;;;44.22;38.90;;;;;;;;;;10201439;28;20069;-69
2022/12/02 13:28:37;;;;;;;52.80;39.38;;;;;;;;;;10204349;28;20045;-69
2022/12/02 13:33:33;;;;;;;41.90;35.58;;;;;;;;;;10180439;28;20158;-69
2022/12/02 13:38:29;;;;;;;44.40;35.63;;;;;;;;;;10171173;28;20062;-69
2022/12/02 13:43:26;;;;;;;41.10;32.35;;;;;;;;;;10194319;28;20109;-69
2022/12/02 13:48:22;;;;;;;40.70;32.10;;;;;;;;;;10191965;28;20053;-69
2022/12/02 13:53:18;;;;;;;42.05;32.00;;;;;;;;;;10182058;28;20053;-68
2022/12/02 13:58:14;;;;;;;40.88;32.45;;;;;;;;;;10173171;28;20525;-69
2022/12/02 14:03:11;;;;;;;48.08;34.83;;;;;;;;;;10176665;28;20042;-70
2022/12/02 14:08:07;;;;;;;40.78;32.17;;;;;;;;;;10178999;28;20054;-69
2022/12/02 14:13:04;;;;;;;41.47;32.63;;;;;;;;;;10181129;28;20088;-70
2022/12/02 14:18:05;;;;;;;41.28;32.10;;;;;;;;;;10177910;28;20124;-69
2022/12/02 14:23:01;;;;;;;40.33;31.35;;;;;;;;;;10203969;28;20038;-70
2022/12/02 14:27:57;;;;;;;40.70;30.17;;;;;;;;;;10195702;28;20049;-69
2022/12/02 14:32:54;;;;;;;41.67;30.63;;;;;;;;;;10189442;28;20041;-65
2022/12/02 14:37:50;;;;;;;42.60;32.10;;;;;;;;;;10170222;28;21613;-65
2022/12/02 14:42:46;;;;;;;43.28;31.77;;;;;;;;;;10165564;28;20070;-65
2022/12/02 14:47:42;;;;;;;44.38;31.60;;;;;;;;;;10163731;28;20057;-65
2022/12/02 14:52:39;;;;;;;40.72;31.73;;;;;;;;;;10165278;28;20557;-65
2022/12/02 14:57:35;;;;;;;41.88;34.83;;;;;;;;;;10166793;28;20056;-65
2022/12/02 15:02:31;;;;;;;43.78;32.35;;;;;;;;;;10202175;28;20049;-65
2022/12/02 15:07:27;;;;;;;41.72;33.65;;;;;;;;;;10192119;28;20045;-65
2022/12/02 15:12:24;;;;;;;50.88;35.08;;;;;;;;;;10192712;28;20080;-65
2022/12/02 15:17:20;;;;;;;43.85;34.53;;;;;;;;;;10195754;28;20076;-65
2022/12/02 15:22:16;;;;;;;41.50;33.00;;;;;;;;;;10180467;28;20050;-65
2022/12/02 15:27:13;;;;;;;50.20;34.65;;;;;;;;;;10183102;28;20054;-65
2022/12/02 15:32:09;;;;;;;45.80;33.42;;;;;;;;;;10184096;28;20073;-65
2022/12/02 15:37:14;;;;;;;49.80;33.80;;;;;;;;;;10173794;28;20057;-66
2022/12/02 15:42:10;;;;;;;44.70;35.88;;;;;;;;;;10179735;28;20544;-66
2022/12/02 15:47:07;;;;;;;54.50;36.60;;;;;;;;;;10193643;28;20042;-65
2022/12/02 15:52:03;;;;;;;47.45;35.35;;;;;;;;;;10204024;28;20050;-65
2022/12/02 15:56:59;;;;;;;46.05;35.03;;;;;;;;;;10205294;28;20045;-66
2022/12/02 16:01:56;;;;;;;45.50;35.53;;;;;;;;;;10209252;28;20136;-66
2022/12/02 16:06:52;;;;;;;46.10;34.72;;;;;;;;;;10209889;28;20041;-66
2022/12/02 16:11:48;;;;;;;43.05;33.63;;;;;;;;;;10212773;28;20129;-66
2022/12/02 16:16:45;;;;;;;41.08;33.70;;;;;;;;;;10197187;28;20129;-66
2022/12/02 16:21:41;;;;;;;41.75;33.33;;;;;;;;;;10211636;28;20137;-66
2022/12/02 16:26:38;;;;;;;43.10;32.03;;;;;;;;;;10209738;28;20045;-66
2022/12/02 16:31:34;;;;;;;40.55;31.83;;;;;;;;;;10195957;28;20061;-66
2022/12/02 16:36:30;;;;;;;40.67;32.97;;;;;;;;;;10174260;28;20133;-67
2022/12/02 16:41:27;;;;;;;38.20;31.42;;;;;;;;;;10197910;28;20058;-66
2022/12/02 16:46:23;;;;;;;37.55;31.65;;;;;;;;;;10201673;28;20052;-66
2022/12/02 16:51:19;;;;;;;38.72;30.80;;;;;;;;;;10182596;28;20089;-66
2022/12/02 16:56:16;;;;;;;38.63;31.80;;;;;;;;;;10199600;28;20497;-66
2022/12/02 17:01:12;;;;;;;38.60;32.67;;;;;;;;;;10196721;28;20045;-66
2022/12/02 17:06:08;;;;;;;36.47;30.85;;;;;;;;;;10202884;28;20076;-66
2022/12/02 17:11:05;;;;;;;36.92;30.73;;;;;;;;;;10208296;28;20141;-66
2022/12/02 17:16:01;;;;;;;36.38;30.98;;;;;;;;;;10201886;28;21869;-66
2022/12/02 17:20:58;;;;;;;36.00;29.88;;;;;;;;;;10179842;28;20049;-66
2022/12/02 17:25:54;;;;;;;35.95;29.85;;;;;;;;;;10195803;28;20037;-66
2022/12/02 17:30:50;;;;;;;35.58;29.88;;;;;;;;;;10180075;28;20053;-65
2022/12/02 17:35:47;;;;;;;38.20;30.80;;;;;;;;;;10168906;28;20065;-65
2022/12/02 17:40:43;;;;;;;38.03;32.20;;;;;;;;;;10182821;28;20065;-65
2022/12/02 17:45:39;;;;;;;36.88;30.63;;;;;;;;;;10182474;28;20050;-66
2022/12/02 17:50:37;;;;;;;36.88;31.20;;;;;;;;;;10178781;28;20135;-65
2022/12/02 17:55:33;;;;;;;43.50;32.55;;;;;;;;;;10170329;28;20050;-66
2022/12/02 18:00:30;;;;;;;35.33;30.10;;;;;;;;;;10197246;28;20440;-66
2022/12/02 18:05:26;;;;;;;41.17;34.03;;;;;;;;;;10174267;28;20121;-66
2022/12/02 18:10:22;;;;;;;38.47;31.52;;;;;;;;;;10178323;28;20505;-65
2022/12/02 18:15:18;;;;;;;39.08;31.58;;;;;;;;;;10178735;28;20045;-65
2022/12/02 18:20:15;;;;;;;38.33;32.72;;;;;;;;;;10171333;28;20046;-69
2022/12/02 18:25:11;;;;;;;39.40;32.22;;;;;;;;;;10179522;28;20049;-69
2022/12/02 18:30:08;;;;;;;37.85;33.67;;;;;;;;;;10165896;28;21982;-69
2022/12/02 18:35:13;;;;;;;36.63;32.40;;;;;;;;;;10192197;28;20145;-69
2022/12/02 18:40:17;;;;;;;39.13;35.05;;;;;;;;;;10178395;28;20037;-69
2022/12/02 18:45:13;;;;;;;38.88;34.85;;;;;;;;;;10171589;28;20132;-69
2022/12/02 18:50:10;;;;;;;39.47;35.22;;;;;;;;;;10177082;28;20089;-69
2022/12/02 18:55:07;;;;;;;40.65;36.25;;;;;;;;;;10167815;28;20140;-69
2022/12/02 19:00:05;;;;;;;39.17;35.03;;;;;;;;;;10176071;28;20056;-69
2022/12/02 19:05:01;;;;;;;37.35;33.38;;;;;;;;;;10171491;28;20072;-69
2022/12/02 19:09:57;;;;;;;37.40;33.42;;;;;;;;;;10172791;28;20073;-69
2022/12/02 19:14:53;;;;;;;41.42;35.83;;;;;;;;;;10176324;28;20418;-69
2022/12/02 19:19:50;;;;;;;39.40;33.83;;;;;;;;;;10171268;28;20050;-69
2022/12/02 19:24:46;;;;;;;37.78;33.67;;;;;;;;;;10175663;28;20054;-69
2022/12/02 19:29:43;;;;;;;36.53;32.65;;;;;;;;;;10176046;28;20042;-69
2022/12/02 19:34:39;;;;;;;41.03;36.78;;;;;;;;;;10183776;28;20050;-69
2022/12/02 19:39:35;;;;;;;39.60;35.35;;;;;;;;;;10200748;28;20752;-69
2022/12/02 19:44:31;;;;;;;39.80;35.50;;;;;;;;;;10187832;28;20093;-69
2022/12/02 19:49:28;;;;;;;40.00;36.08;;;;;;;;;;10195974;28;20505;-69
2022/12/02 19:54:24;;;;;;;40.88;36.63;;;;;;;;;;10199700;28;20485;-69
2022/12/02 19:59:20;;;;;;;42.45;38.13;;;;;;;;;;10188616;28;20056;-69
2022/12/02 20:04:16;;;;;;;42.72;38.40;;;;;;;;;;10189297;28;20061;-69
2022/12/02 20:09:33;;;;;;;41.05;36.85;;;;;;;;;;10195699;28;20465;-69
2022/12/02 20:14:29;;;;;;;41.33;37.22;;;;;;;;;;10205119;28;20411;-69
2022/12/02 20:19:25;;;;;;;40.00;36.28;;;;;;;;;;10192492;28;20041;-69
2022/12/02 20:24:22;;;;;;;38.97;35.38;;;;;;;;;;10195047;28;20283;-69
2022/12/02 20:29:18;;;;;;;37.75;34.28;;;;;;;;;;10195285;28;20125;-69
2022/12/02 20:34:14;;;;;;;41.00;37.25;;;;;;;;;;10205492;28;20141;-70
2022/12/02 20:39:12;;;;;;;37.85;34.65;;;;;;;;;;10212561;28;20046;-69
2022/12/02 20:44:08;;;;;;;35.53;32.33;;;;;;;;;;10202805;28;20045;-69
2022/12/02 20:49:04;;;;;;;36.05;32.72;;;;;;;;;;10205172;28;20041;-69
2022/12/02 20:54:00;;;;;;;35.65;32.33;;;;;;;;;;10202112;28;20034;-69
2022/12/02 20:58:57;;;;;;;34.42;31.48;;;;;;;;;;10190614;28;20054;-69
2022/12/02 21:03:53;;;;;;;32.42;29.52;;;;;;;;;;10181950;28;20052;-69
2022/12/02 21:08:50;;;;;;;33.88;30.75;;;;;;;;;;10168665;28;20406;-69
2022/12/02 21:13:49;;;;;;;33.20;30.08;;;;;;;;;;10168891;28;20690;-69
2022/12/02 21:18:46;;;;;;;32.67;29.58;;;;;;;;;;10180712;28;20414;-69
2022/12/02 21:23:42;;;;;;;30.92;28.15;;;;;;;;;;10197888;28;20133;-69
2022/12/02 21:28:38;;;;;;;34.13;30.88;;;;;;;;;;10175889;28;20042;-69
2022/12/02 21:33:34;;;;;;;33.83;30.63;;;;;;;;;;10185029;28;20050;-70
2022/12/02 21:38:31;;;;;;;32.22;29.33;;;;;;;;;;10181262;28;20061;-69
2022/12/02 21:43:27;;;;;;;32.72;29.60;;;;;;;;;;10178444;28;20052;-73
2022/12/02 21:48:23;;;;;;;33.72;30.48;;;;;;;;;;10171713;28;20048;-71
2022/12/02 21:53:20;;;;;;;33.00;29.80;;;;;;;;;;10165898;28;20045;-75
2022/12/02 21:58:16;;;;;;;33.38;30.25;;;;;;;;;;10186138;28;20432;-72
2022/12/02 22:03:12;;;;;;;31.00;27.73;;;;;;;;;;10175659;28;20057;-73
2022/12/02 22:08:10;;;;;;;31.67;28.52;;;;;;;;;;10177588;28;20052;-73
2022/12/02 22:13:07;;;;;;;27.77;25.35;;;;;;;;;;10170036;28;20060;-72
2022/12/02 22:18:03;;;;;;;31.58;28.60;;;;;;;;;;10168512;28;20573;-72
2022/12/02 22:22:59;;;;;;;31.77;28.77;;;;;;;;;;10177534;28;20049;-73
2022/12/02 22:27:56;;;;;;;30.63;27.52;;;;;;;;;;10179216;28;20049;-73
2022/12/02 22:32:52;;;;;;;31.83;28.42;;;;;;;;;;10192721;28;20148;-74
2022/12/02 22:37:48;;;;;;;29.45;26.55;;;;;;;;;;10194156;28;20052;-75
2022/12/02 22:42:45;;;;;;;30.45;27.48;;;;;;;;;;10228913;28;20081;-73
2022/12/02 22:47:41;;;;;;;31.58;28.38;;;;;;;;;;10179875;28;20047;-72
2022/12/02 22:52:37;;;;;;;30.70;27.42;;;;;;;;;;10182428;28;20050;-73
2022/12/02 22:57:33;;;;;;;30.92;28.05;;;;;;;;;;10197524;28;20751;-73
2022/12/02 23:02:30;;;;;;;32.30;29.10;;;;;;;;;;10209796;28;20052;-73
2022/12/02 23:07:26;;;;;;;32.70;29.20;;;;;;;;;;10200318;28;20045;-73
2022/12/02 23:12:24;;;;;;;30.42;27.50;;;;;;;;;;10194606;28;20104;-72
2022/12/02 23:17:22;;;;;;;30.10;26.92;;;;;;;;;;10187291;28;20038;-73
2022/12/02 23:22:18;;;;;;;29.80;26.70;;;;;;;;;;10192966;28;20520;-72
2022/12/02 23:27:15;;;;;;;31.25;26.83;;;;;;;;;;10188599;28;20132;-73
2022/12/02 23:32:11;;;;;;;30.00;26.77;;;;;;;;;;10194266;28;20061;-73
2022/12/02 23:37:07;;;;;;;29.48;26.50;;;;;;;;;;10196429;28;20556;-73
2022/12/02 23:42:04;;;;;;;32.58;27.15;;;;;;;;;;10205308;28;20580;-75
2022/12/02 23:47:00;;;;;;;27.48;24.83;;;;;;;;;;10189938;28;20765;-73
2022/12/02 23:51:57;;;;;;;28.73;26.08;;;;;;;;;;10192711;28;20066;-72
2022/12/02 23:56:53;;;;;;;27.55;24.92;;;;;;;;;;10201895;28;20046;-71
